createdAt,value
2022-11-09T00:01:05.469Z,12.50
2022-11-09T00:03:32.307Z,12.50
2022-11-09T00:06:00.152Z,12.50
2022-11-09T00:08:27.576Z,12.50
2022-11-09T00:10:54.353Z,12.50
2022-11-09T00:13:21.975Z,12.50
2022-11-09T00:15:50.413Z,12.60
2022-11-09T00:18:17.182Z,12.60
2022-11-09T00:20:47.547Z,12.60
2022-11-09T00:23:18.316Z,12.60
2022-11-09T00:25:45.351Z,12.60
2022-11-09T00:28:12.120Z,12.60
2022-11-09T00:30:39.169Z,12.60
2022-11-09T00:33:05.933Z,12.60
2022-11-09T00:35:33.084Z,12.60
2022-11-09T00:37:59.862Z,12.70
2022-11-09T00:40:26.695Z,12.70
2022-11-09T00:42:53.521Z,12.70
2022-11-09T00:45:20.357Z,12.70
2022-11-09T00:47:47.097Z,12.70
2022-11-09T00:50:13.834Z,12.70
2022-11-09T00:52:40.573Z,12.70
2022-11-09T00:55:07.699Z,12.70
2022-11-09T00:57:34.454Z,12.70
2022-11-09T01:00:01.210Z,12.80
2022-11-09T01:02:27.990Z,12.80
2022-11-09T01:04:54.789Z,12.80
2022-11-09T01:07:21.617Z,12.80
2022-11-09T01:09:48.376Z,12.70
2022-11-09T01:12:15.136Z,12.70
2022-11-09T01:14:41.908Z,12.70
2022-11-09T01:17:08.677Z,12.70
2022-11-09T01:19:35.574Z,12.70
2022-11-09T01:22:02.332Z,12.70
2022-11-09T01:24:29.108Z,12.60
2022-11-09T01:26:55.862Z,12.60
2022-11-09T01:29:22.716Z,12.60
2022-11-09T01:31:50.213Z,12.50
2022-11-09T01:34:17.610Z,12.50
2022-11-09T01:36:44.410Z,12.40
2022-11-09T01:39:11.282Z,12.40
2022-11-09T01:41:38.120Z,12.30
2022-11-09T01:44:16.434Z,12.40
2022-11-09T01:47:25.807Z,12.40
2022-11-09T01:49:58.267Z,12.30
2022-11-09T01:52:32.300Z,12.30
2022-11-09T01:55:18.334Z,12.30
2022-11-09T01:57:47.225Z,12.30
2022-11-09T02:00:15.944Z,12.20
2022-11-09T02:02:46.134Z,12.30
2022-11-09T02:05:16.264Z,12.20
2022-11-09T02:07:43.959Z,12.20
2022-11-09T02:10:19.351Z,12.20
2022-11-09T02:12:46.455Z,12.20
2022-11-09T02:15:13.432Z,12.20
2022-11-09T02:17:41.920Z,12.20
2022-11-09T02:20:13.504Z,12.20
2022-11-09T02:22:41.708Z,12.20
2022-11-09T02:25:10.209Z,12.20
2022-11-09T02:27:37.492Z,12.20
2022-11-09T02:30:05.621Z,12.20
2022-11-09T02:32:32.452Z,12.10
2022-11-09T02:34:59.351Z,12.10
2022-11-09T02:37:29.009Z,12.10
2022-11-09T02:39:57.326Z,12.00
2022-11-09T02:42:24.371Z,12.00
2022-11-09T02:44:58.471Z,11.90
2022-11-09T02:47:25.744Z,11.90
2022-11-09T02:49:52.770Z,11.80
2022-11-09T02:52:19.552Z,11.80
2022-11-09T02:54:46.316Z,11.70
2022-11-09T02:57:13.058Z,11.70
2022-11-09T02:59:39.791Z,11.70
2022-11-09T03:02:06.510Z,11.60
2022-11-09T03:04:33.312Z,11.50
2022-11-09T03:07:00.155Z,11.50
2022-11-09T03:09:26.966Z,11.50
2022-11-09T03:11:53.743Z,11.50
2022-11-09T03:14:20.540Z,11.50
2022-11-09T03:16:50.512Z,11.50
2022-11-09T03:19:17.882Z,11.40
2022-11-09T03:21:44.713Z,11.50
2022-11-09T03:24:11.751Z,11.50
2022-11-09T03:26:38.520Z,11.50
2022-11-09T03:29:07.526Z,11.50
2022-11-09T03:31:34.273Z,11.50
2022-11-09T03:34:01.082Z,11.50
2022-11-09T03:36:27.820Z,11.50
2022-11-09T03:38:54.592Z,11.50
2022-11-09T03:41:21.411Z,11.50
2022-11-09T03:43:48.180Z,11.50
2022-11-09T03:46:14.963Z,11.60
2022-11-09T03:48:41.721Z,11.50
2022-11-09T03:51:08.495Z,11.60
2022-11-09T03:53:35.275Z,11.60
2022-11-09T03:56:03.863Z,11.60
2022-11-09T03:58:30.704Z,11.70
2022-11-09T04:00:57.508Z,11.70
2022-11-09T04:03:24.289Z,11.60
2022-11-09T04:05:51.010Z,11.60
2022-11-09T04:08:17.992Z,11.60
2022-11-09T04:10:45.530Z,11.60
2022-11-09T04:13:12.265Z,11.60
2022-11-09T04:15:39.014Z,11.60
2022-11-09T04:18:05.802Z,11.60
2022-11-09T04:20:33.026Z,11.60
2022-11-09T04:23:01.745Z,11.60
2022-11-09T04:25:32.409Z,11.60
2022-11-09T04:28:00.151Z,11.60
2022-11-09T04:30:28.240Z,11.60
2022-11-09T04:32:56.271Z,11.60
2022-11-09T04:35:23.999Z,11.60
2022-11-09T04:38:01.029Z,11.60
2022-11-09T04:40:30.082Z,11.70
2022-11-09T04:43:00.458Z,11.70
2022-11-09T04:45:27.827Z,11.70
2022-11-09T04:47:59.197Z,11.70
2022-11-09T04:50:26.539Z,11.80
2022-11-09T04:52:53.460Z,11.80
2022-11-09T04:55:20.260Z,11.80
2022-11-09T04:57:47.034Z,11.80
2022-11-09T05:00:14.157Z,11.70
2022-11-09T05:02:40.970Z,11.70
2022-11-09T05:05:07.821Z,11.70
2022-11-09T05:07:34.562Z,11.70
2022-11-09T05:10:01.354Z,11.60
2022-11-09T05:12:28.139Z,11.60
2022-11-09T05:14:54.938Z,11.60
2022-11-09T05:17:21.722Z,11.50
2022-11-09T05:19:51.360Z,11.50
2022-11-09T05:22:39.188Z,11.50
2022-11-09T05:25:06.378Z,11.40
2022-11-09T05:27:33.134Z,11.50
2022-11-09T05:29:59.900Z,11.50
2022-11-09T05:32:26.768Z,11.50
2022-11-09T05:34:53.599Z,11.50
2022-11-09T05:37:22.230Z,11.60
2022-11-09T05:39:49.122Z,11.60
2022-11-09T05:42:15.955Z,11.60
2022-11-09T05:44:42.741Z,11.60
2022-11-09T05:47:09.566Z,11.60
2022-11-09T05:49:36.330Z,11.60
2022-11-09T05:52:03.277Z,11.60
2022-11-09T05:54:30.083Z,11.60
2022-11-09T05:56:56.878Z,11.60
2022-11-09T05:59:23.664Z,11.60
2022-11-09T06:01:50.599Z,11.60
2022-11-09T06:04:17.460Z,11.60
2022-11-09T06:06:44.392Z,11.60
2022-11-09T06:09:11.234Z,11.60
2022-11-09T06:11:38.033Z,11.60
2022-11-09T06:14:04.812Z,11.60
2022-11-09T06:16:31.760Z,11.50
2022-11-09T06:18:58.633Z,11.50
2022-11-09T06:21:25.369Z,11.40
2022-11-09T06:23:52.139Z,11.40
2022-11-09T06:26:18.976Z,11.30
2022-11-09T06:28:45.797Z,11.30
2022-11-09T06:31:14.722Z,11.30
2022-11-09T06:33:41.523Z,11.20
2022-11-09T06:36:09.935Z,11.20
2022-11-09T06:38:36.733Z,11.20
2022-11-09T06:41:03.735Z,11.10
2022-11-09T06:43:30.509Z,11.10
2022-11-09T06:45:57.787Z,11.10
2022-11-09T06:48:24.884Z,11.10
2022-11-09T06:50:51.646Z,11.10
2022-11-09T06:53:18.843Z,11.20
2022-11-09T06:55:50.592Z,11.30
2022-11-09T06:58:19.395Z,11.40
2022-11-09T07:00:46.229Z,11.50
2022-11-09T07:03:17.088Z,11.60
2022-11-09T07:05:44.416Z,11.70
2022-11-09T07:08:11.930Z,11.70
2022-11-09T07:10:39.102Z,11.80
2022-11-09T07:13:06.592Z,11.80
2022-11-09T07:15:34.335Z,11.80
2022-11-09T07:18:02.518Z,11.90
2022-11-09T07:20:29.627Z,11.90
2022-11-09T07:22:56.808Z,11.90
2022-11-09T07:25:25.099Z,11.90
2022-11-09T07:27:51.966Z,11.90
2022-11-09T07:30:19.117Z,11.90
2022-11-09T07:35:32.600Z,11.90
2022-11-09T07:38:00.941Z,11.90
2022-11-09T07:40:27.799Z,11.90
2022-11-09T07:42:58.282Z,12.00
2022-11-09T07:45:25.981Z,12.00
2022-11-09T07:48:02.132Z,12.00
2022-11-09T07:50:33.699Z,12.00
2022-11-09T07:53:01.387Z,12.00
2022-11-09T07:55:29.301Z,12.10
2022-11-09T07:58:00.046Z,12.10
2022-11-09T08:00:28.324Z,12.10
2022-11-09T08:02:55.460Z,12.20
2022-11-09T08:05:22.351Z,12.20
2022-11-09T08:07:53.983Z,12.30
2022-11-09T08:10:20.743Z,12.40
2022-11-09T08:13:03.091Z,12.50
2022-11-09T08:15:30.231Z,12.50
2022-11-09T08:18:05.240Z,12.60
2022-11-09T08:20:34.419Z,12.60
2022-11-09T08:23:04.891Z,12.60
2022-11-09T08:25:36.224Z,12.60
2022-11-09T08:28:03.668Z,12.60
2022-11-09T08:30:31.295Z,12.60
2022-11-09T08:32:59.882Z,12.60
2022-11-09T08:35:27.199Z,12.60
2022-11-09T08:37:54.422Z,12.70
2022-11-09T08:40:23.771Z,12.70
2022-11-09T08:42:51.030Z,12.70
2022-11-09T08:45:18.598Z,12.70
2022-11-09T08:47:45.718Z,12.80
2022-11-09T08:50:13.906Z,12.90
2022-11-09T08:52:41.128Z,13.10
2022-11-09T08:55:08.381Z,13.10
2022-11-09T08:57:35.254Z,13.20
2022-11-09T09:00:02.211Z,13.10
2022-11-09T09:02:29.029Z,13.20
2022-11-09T09:04:55.837Z,13.20
2022-11-09T09:07:22.734Z,13.20
2022-11-09T09:09:49.775Z,13.20
2022-11-09T09:12:16.555Z,13.20
2022-11-09T09:14:43.379Z,13.20
2022-11-09T09:17:10.372Z,13.20
2022-11-09T09:19:37.199Z,13.20
2022-11-09T09:22:04.040Z,13.20
2022-11-09T09:24:30.876Z,13.30
2022-11-09T09:26:57.692Z,13.30
2022-11-09T09:29:24.506Z,13.30
2022-11-09T09:31:51.290Z,13.30
2022-11-09T09:34:18.199Z,13.40
2022-11-09T09:36:48.232Z,13.40
2022-11-09T09:39:15.707Z,13.50
2022-11-09T09:41:54.305Z,13.60
2022-11-09T09:44:34.364Z,13.70
2022-11-09T09:47:15.466Z,13.80
2022-11-09T09:50:21.529Z,13.90
2022-11-09T09:53:22.131Z,14.10
2022-11-09T09:55:48.177Z,14.40
2022-11-09T09:58:29.254Z,14.50
2022-11-09T10:01:19.945Z,14.70
2022-11-09T10:03:48.114Z,14.80
2022-11-09T10:06:38.093Z,14.90
2022-11-09T10:09:14.091Z,15.00
2022-11-09T10:12:13.375Z,15.00
2022-11-09T10:15:09.059Z,15.10
2022-11-09T10:17:46.680Z,15.20
2022-11-09T10:20:26.722Z,15.10
2022-11-09T10:23:10.217Z,15.00
2022-11-09T10:28:47.639Z,15.10
2022-11-09T10:31:20.107Z,15.10
2022-11-09T10:33:57.710Z,15.10
2022-11-09T10:36:46.596Z,15.10
2022-11-09T10:39:15.076Z,15.00
2022-11-09T10:41:46.419Z,14.90
2022-11-09T10:44:17.620Z,15.00
2022-11-09T10:47:05.517Z,15.10
2022-11-09T10:49:33.897Z,15.10
2022-11-09T10:52:01.267Z,15.20
2022-11-09T10:54:37.852Z,15.30
2022-11-09T10:57:11.640Z,15.40
2022-11-09T10:59:48.565Z,15.40
2022-11-09T11:02:27.303Z,15.40
2022-11-09T11:05:16.731Z,15.40
2022-11-09T11:07:44.731Z,15.50
2022-11-09T11:10:17.848Z,15.60
2022-11-09T11:13:04.858Z,15.60
2022-11-09T11:15:43.713Z,15.60
2022-11-09T11:18:24.009Z,15.70
2022-11-09T11:21:18.463Z,15.70
2022-11-09T11:24:03.666Z,15.70
2022-11-09T11:26:54.222Z,15.80
2022-11-09T11:29:45.548Z,15.90
2022-11-09T11:32:15.746Z,15.90
2022-11-09T11:38:03.152Z,16.30
2022-11-09T11:40:33.442Z,16.40
2022-11-09T11:43:19.195Z,16.30
2022-11-09T11:45:56.449Z,16.00
2022-11-09T11:48:41.996Z,15.70
2022-11-09T11:51:41.075Z,15.70
2022-11-09T11:55:07.532Z,15.60
2022-11-09T11:57:52.516Z,15.70
2022-11-09T12:00:20.418Z,15.70
2022-11-09T12:03:14.467Z,15.70
2022-11-09T12:06:03.372Z,15.70
2022-11-09T12:09:09.026Z,15.70
2022-11-09T12:11:41.542Z,15.60
2022-11-09T12:14:46.543Z,15.50
2022-11-09T12:17:24.847Z,15.50
2022-11-09T12:20:28.516Z,15.40
2022-11-09T12:22:58.183Z,15.30
2022-11-09T12:25:50.493Z,15.20
2022-11-09T12:28:45.846Z,15.20
2022-11-09T12:31:32.269Z,15.20
2022-11-09T12:34:14.606Z,15.20
2022-11-09T12:36:59.682Z,15.20
2022-11-09T12:39:35.871Z,15.20
2022-11-09T12:42:11.183Z,15.40
2022-11-09T12:44:44.151Z,15.50
2022-11-09T12:47:17.675Z,15.60
2022-11-09T12:49:46.095Z,15.60
2022-11-09T12:52:19.362Z,15.60
2022-11-09T12:54:48.596Z,15.50
2022-11-09T12:57:22.675Z,15.30
2022-11-09T12:59:58.146Z,15.20
2022-11-09T13:02:32.065Z,15.00
2022-11-09T13:05:00.559Z,14.90
2022-11-09T13:07:50.528Z,14.80
2022-11-09T13:10:37.937Z,14.70
2022-11-09T13:13:07.789Z,14.60
2022-11-09T13:15:35.687Z,14.60
2022-11-09T13:18:22.054Z,14.50
2022-11-09T13:20:55.936Z,14.50
2022-11-09T13:23:59.107Z,14.50
2022-11-09T13:26:32.550Z,14.60
2022-11-09T13:29:14.604Z,14.70
2022-11-09T13:32:12.676Z,14.70
2022-11-09T13:34:45.515Z,14.70
2022-11-09T13:37:34.254Z,14.70
2022-11-09T13:40:01.081Z,14.60
2022-11-09T13:42:32.612Z,14.60
2022-11-09T13:45:28.866Z,14.60
2022-11-09T13:47:56.172Z,14.70
2022-11-09T13:50:24.630Z,14.70
2022-11-09T13:52:53.762Z,14.70
2022-11-09T13:55:30.470Z,14.70
2022-11-09T13:58:01.739Z,14.70
2022-11-09T14:00:28.691Z,14.60
2022-11-09T14:03:02.274Z,14.60
2022-11-09T14:05:34.892Z,14.60
2022-11-09T14:08:03.098Z,14.60
2022-11-09T14:10:39.420Z,14.50
2022-11-09T14:13:25.181Z,14.40
2022-11-09T14:16:22.315Z,14.30
2022-11-09T14:19:04.628Z,14.20
2022-11-09T14:21:44.141Z,14.10
2022-11-09T14:24:26.034Z,14.10
2022-11-09T14:27:14.215Z,14.00
2022-11-09T14:29:51.730Z,13.90
2022-11-09T14:32:23.078Z,13.90
2022-11-09T14:34:49.880Z,13.90
2022-11-09T14:37:17.297Z,13.90
2022-11-09T14:39:49.418Z,13.90
2022-11-09T14:42:21.942Z,13.90
2022-11-09T14:44:49.525Z,13.80
2022-11-09T14:47:19.222Z,13.80
2022-11-09T14:49:46.930Z,13.80
2022-11-09T14:52:17.491Z,13.80
2022-11-09T14:54:45.831Z,13.80
2022-11-09T14:57:17.009Z,13.80
2022-11-09T14:59:45.718Z,13.70
2022-11-09T15:02:15.190Z,13.70
2022-11-09T15:04:52.142Z,13.60
2022-11-09T15:07:21.463Z,13.60
2022-11-09T15:10:01.066Z,13.50
2022-11-09T15:12:29.876Z,13.50
2022-11-09T15:15:03.105Z,13.50
2022-11-09T15:17:37.958Z,13.50
2022-11-09T15:20:14.002Z,13.40
2022-11-09T15:22:54.469Z,13.50
2022-11-09T15:25:41.573Z,13.40
2022-11-09T15:28:08.387Z,13.40
2022-11-09T15:30:55.479Z,13.30
2022-11-09T15:33:29.734Z,13.20
2022-11-09T15:36:04.796Z,13.10
2022-11-09T15:38:40.011Z,13.10
2022-11-09T15:41:16.149Z,13.00
2022-11-09T15:43:43.561Z,13.00
2022-11-09T15:46:16.380Z,12.90
2022-11-09T15:48:46.206Z,12.90
2022-11-09T15:51:15.226Z,12.90
2022-11-09T15:53:42.584Z,12.80
2022-11-09T15:56:15.714Z,12.80
2022-11-09T15:58:42.848Z,12.80
2022-11-09T16:01:11.008Z,12.70
2022-11-09T16:03:38.013Z,12.70
2022-11-09T16:06:05.107Z,12.70
2022-11-09T16:08:32.073Z,12.70
2022-11-09T16:11:03.750Z,12.70
2022-11-09T16:13:30.833Z,12.70
2022-11-09T16:16:06.991Z,12.70
2022-11-09T16:18:34.174Z,12.70
2022-11-09T16:21:12.070Z,12.70
2022-11-09T16:23:38.984Z,12.60
2022-11-09T16:26:14.134Z,12.60
2022-11-09T16:28:43.230Z,12.60
2022-11-09T16:31:12.526Z,12.60
2022-11-09T16:33:40.172Z,12.70
2022-11-09T16:36:15.368Z,12.70
2022-11-09T16:38:47.383Z,12.70
2022-11-09T16:41:15.497Z,12.70
2022-11-09T16:43:43.446Z,12.70
2022-11-09T16:46:12.024Z,12.70
2022-11-09T16:48:39.082Z,12.70
2022-11-09T16:51:06.113Z,12.70
2022-11-09T16:53:33.123Z,12.70
2022-11-09T16:56:00.657Z,12.70
2022-11-09T16:58:27.629Z,12.70
2022-11-09T17:01:12.453Z,12.70
2022-11-09T17:03:39.909Z,12.60
2022-11-09T17:06:11.091Z,12.60
2022-11-09T17:08:43.214Z,12.60
2022-11-09T17:11:11.596Z,12.60
2022-11-09T17:13:38.935Z,12.60
2022-11-09T17:16:09.080Z,12.70
2022-11-09T17:18:37.721Z,12.70
2022-11-09T17:21:09.813Z,12.70
2022-11-09T17:23:37.063Z,12.70
2022-11-09T17:26:05.362Z,12.60
2022-11-09T17:28:32.907Z,12.60
2022-11-09T17:31:00.072Z,12.60
2022-11-09T17:33:27.101Z,12.60
2022-11-09T17:36:49.283Z,12.60
2022-11-09T17:39:16.198Z,12.60
2022-11-09T17:41:43.174Z,12.60
2022-11-09T17:44:10.074Z,12.60
2022-11-09T17:46:37.074Z,12.60
2022-11-09T17:49:09.613Z,12.60
2022-11-09T17:51:37.818Z,12.60
2022-11-09T17:54:04.876Z,12.60
2022-11-09T17:56:33.374Z,12.60
2022-11-09T17:59:05.437Z,12.60
2022-11-09T18:01:37.963Z,12.50
2022-11-09T18:04:08.972Z,12.30
2022-11-09T18:06:36.171Z,12.20
2022-11-09T18:09:39.254Z,12.10
2022-11-09T18:11:50.793Z,12.00
2022-11-09T18:14:24.923Z,11.90
2022-11-09T18:16:51.860Z,11.80
2022-11-09T18:19:18.814Z,11.70
2022-11-09T18:21:47.170Z,11.70
2022-11-09T18:24:15.368Z,11.60
2022-11-09T18:26:53.999Z,11.50
2022-11-09T18:29:21.172Z,11.40
2022-11-09T18:31:49.558Z,11.40
2022-11-09T18:34:16.670Z,11.30
2022-11-09T18:36:43.563Z,11.20
2022-11-09T18:39:28.733Z,11.10
2022-11-09T18:42:00.312Z,11.10
2022-11-09T18:44:31.408Z,11.00
2022-11-09T18:47:26.320Z,11.00
2022-11-09T18:49:54.720Z,11.00
2022-11-09T18:52:21.601Z,11.00
2022-11-09T18:54:48.515Z,11.00
2022-11-09T18:57:19.689Z,11.00
2022-11-09T18:59:46.901Z,11.10
2022-11-09T19:02:14.073Z,11.20
2022-11-09T19:04:41.238Z,11.20
2022-11-09T19:07:08.183Z,11.30
2022-11-09T19:09:39.064Z,11.30
2022-11-09T19:12:10.890Z,11.40
2022-11-09T19:14:41.304Z,11.50
2022-11-09T19:17:14.614Z,11.50
2022-11-09T19:19:42.393Z,11.60
2022-11-09T19:22:17.019Z,11.70
2022-11-09T19:24:44.502Z,11.70
2022-11-09T19:27:20.831Z,11.70
2022-11-09T19:29:47.935Z,11.70
2022-11-09T19:32:16.585Z,11.80
2022-11-09T19:34:46.146Z,11.80
2022-11-09T19:37:13.211Z,11.80
2022-11-09T19:39:48.459Z,11.80
2022-11-09T19:42:15.635Z,11.80
2022-11-09T19:44:42.531Z,11.80
2022-11-09T19:47:09.629Z,11.80
2022-11-09T19:49:36.545Z,11.80
2022-11-09T19:52:03.427Z,11.80
2022-11-09T19:54:30.451Z,11.80
2022-11-09T19:56:57.578Z,11.80
2022-11-09T19:59:25.168Z,11.80
2022-11-09T20:01:51.995Z,11.80
2022-11-09T20:04:18.961Z,11.80
2022-11-09T20:06:45.782Z,11.80
2022-11-09T20:09:12.738Z,11.80
2022-11-09T20:11:58.158Z,11.70
2022-11-09T20:14:24.998Z,11.70
2022-11-09T20:17:02.069Z,11.80
2022-11-09T20:19:44.105Z,11.80
2022-11-09T20:22:14.752Z,11.80
2022-11-09T20:24:41.642Z,11.80
2022-11-09T20:27:32.321Z,11.80
2022-11-09T20:30:00.005Z,11.80
2022-11-09T20:32:26.873Z,11.80
2022-11-09T20:34:55.235Z,11.80
2022-11-09T20:37:25.573Z,11.80
2022-11-09T20:39:52.483Z,11.80
2022-11-09T20:42:19.439Z,11.80
2022-11-09T20:44:51.376Z,11.80
2022-11-09T20:47:49.177Z,11.80
2022-11-09T20:50:10.030Z,11.70
2022-11-09T20:52:37.099Z,11.70
2022-11-09T20:55:06.979Z,11.70
2022-11-09T20:57:33.809Z,11.70
2022-11-09T21:00:00.794Z,11.70
2022-11-09T21:02:29.175Z,11.60
2022-11-09T21:04:56.373Z,11.60
2022-11-09T21:07:23.160Z,11.60
2022-11-09T21:09:49.944Z,11.60
2022-11-09T21:12:24.635Z,11.60
2022-11-09T21:14:51.788Z,11.60
2022-11-09T21:17:18.944Z,11.60
2022-11-09T21:19:46.582Z,11.60
2022-11-09T21:22:13.903Z,11.50
2022-11-09T21:24:59.213Z,11.50
2022-11-09T21:27:48.229Z,11.50
2022-11-09T21:30:15.389Z,11.40
2022-11-09T21:32:42.378Z,11.30
2022-11-09T21:35:09.705Z,11.20
2022-11-09T21:37:36.735Z,11.20
2022-11-09T21:40:03.955Z,11.10
2022-11-09T21:42:30.732Z,11.10
2022-11-09T21:44:57.513Z,11.10
2022-11-09T21:47:26.416Z,11.10
2022-11-09T21:49:53.299Z,11.10
2022-11-09T21:52:20.956Z,11.10
2022-11-09T21:54:47.834Z,11.10
2022-11-09T21:57:14.702Z,11.00
2022-11-09T21:59:41.520Z,11.00
2022-11-09T22:02:09.593Z,10.90
2022-11-09T22:04:36.472Z,10.90
2022-11-09T22:07:03.390Z,10.90
2022-11-09T22:09:50.538Z,10.90
2022-11-09T22:12:36.531Z,10.80
2022-11-09T22:15:21.945Z,10.80
2022-11-09T22:17:48.731Z,10.80
2022-11-09T22:20:34.863Z,10.80
2022-11-09T22:23:05.928Z,10.80
2022-11-09T22:25:32.714Z,10.80
2022-11-09T22:27:59.726Z,10.80
2022-11-09T22:30:26.549Z,10.80
2022-11-09T22:32:53.346Z,10.80
2022-11-09T22:35:20.165Z,10.80
2022-11-09T22:37:46.958Z,10.80
2022-11-09T22:40:13.826Z,10.70
2022-11-09T22:42:40.604Z,10.70
2022-11-09T22:45:07.676Z,10.70
2022-11-09T22:47:34.486Z,10.70
2022-11-09T22:50:01.291Z,10.60
2022-11-09T22:52:28.065Z,10.60
2022-11-09T22:54:54.831Z,10.60
2022-11-09T22:57:23.793Z,10.50
2022-11-09T22:59:50.582Z,10.50
2022-11-09T23:02:17.371Z,10.50
2022-11-09T23:04:44.165Z,10.50
2022-11-09T23:07:11.064Z,10.40
2022-11-09T23:09:37.861Z,10.40
2022-11-09T23:12:04.763Z,10.30
2022-11-09T23:14:50.025Z,10.30
2022-11-09T23:17:35.435Z,10.20
2022-11-09T23:20:04.716Z,10.10
2022-11-09T23:22:35.181Z,10.00
2022-11-09T23:25:20.637Z,10.00
2022-11-09T23:27:51.646Z,9.90
2022-11-09T23:30:19.057Z,9.80
2022-11-09T23:32:50.030Z,9.80
2022-11-09T23:35:20.939Z,9.80
2022-11-09T23:37:47.833Z,9.70
2022-11-09T23:40:14.743Z,9.70
2022-11-09T23:42:41.545Z,9.70
2022-11-09T23:45:08.771Z,9.70
2022-11-09T23:47:35.581Z,9.70
2022-11-09T23:50:02.396Z,9.70
2022-11-09T23:52:29.206Z,9.70
2022-11-09T23:54:56.096Z,9.70
2022-11-09T23:57:22.886Z,9.70
2022-11-09T23:59:49.750Z,9.70
